Time;durP1;ratioP1;P1;durP2;ratioP2;P2;SDS_P1;SDS_P2;PMS_P1;PMS_P2;Temp;Humidity;BMP_temperature;BMP_pressure;BME280_temperature;BME280_humidity;BME280_pressure;Samples;Min_cycle;Max_cycle;Signal;HPM_P1;HPM_P2
2022/04/15 00:02:15;;;;;;;15.10;10.65;;;;;;;13.68;100.00;99921.56;5018620;28;20049;-52
2022/04/15 00:04:59;;;;;;;14.52;8.50;;;;;;;13.68;100.00;99921.56;5022344;28;20520;-52
2022/04/15 00:07:44;;;;;;;14.00;9.23;;;;;;;13.60;100.00;99913.94;5026363;28;20042;-51
2022/04/15 00:10:29;;;;;;;12.90;9.02;;;;;;;13.52;100.00;99910.75;5031474;28;20049;-51
2022/04/15 00:13:19;;;;;;;12.20;9.13;;;;;;;13.46;100.00;99918.84;5032198;28;20054;-52
2022/04/15 00:16:06;;;;;;;14.90;11.13;;;;;;;13.29;100.00;99917.66;5030295;28;20059;-52
2022/04/15 00:18:51;;;;;;;15.07;10.35;;;;;;;13.32;100.00;99916.66;5031000;28;20049;-51
2022/04/15 00:21:35;;;;;;;14.43;10.05;;;;;;;13.31;100.00;99917.59;5031148;28;20174;-52
2022/04/15 00:24:20;;;;;;;16.33;11.15;;;;;;;13.30;100.00;99913.25;5023339;28;20103;-52
2022/04/15 00:27:05;;;;;;;15.77;11.50;;;;;;;13.27;100.00;99908.94;5030361;28;20064;-52
2022/04/15 00:29:50;;;;;;;14.48;10.90;;;;;;;13.21;100.00;99919.66;5029435;28;20824;-52
2022/04/15 00:32:34;;;;;;;16.65;11.35;;;;;;;13.12;100.00;99911.22;5028271;28;20140;-52
2022/04/15 00:35:19;;;;;;;17.30;11.13;;;;;;;13.15;100.00;99908.47;5030201;28;20045;-51
2022/04/15 00:38:04;;;;;;;14.93;10.48;;;;;;;13.16;100.00;99913.69;5029284;28;20046;-52
2022/04/15 00:40:48;;;;;;;15.10;11.10;;;;;;;13.16;100.00;99918.97;5029509;28;20041;-51
2022/04/15 00:43:33;;;;;;;13.75;9.50;;;;;;;13.21;100.00;99932.78;5026536;28;20053;-52
2022/04/15 00:46:18;;;;;;;18.58;10.50;;;;;;;13.22;100.00;99939.78;5030296;28;20045;-52
2022/04/15 00:49:02;;;;;;;14.43;9.70;;;;;;;13.21;100.00;99942.47;5031750;28;20048;-52
2022/04/15 00:51:49;;;;;;;13.98;8.70;;;;;;;13.28;100.00;99947.50;5031672;28;20049;-52
2022/04/15 00:54:35;;;;;;;14.35;8.77;;;;;;;13.24;100.00;99947.63;5024891;28;20042;-51
2022/04/15 00:57:23;;;;;;;13.35;9.20;;;;;;;13.26;100.00;99951.09;5029319;28;20052;-52
2022/04/15 01:00:11;;;;;;;10.63;7.82;;;;;;;13.27;100.00;99952.81;5031223;28;20041;-52
2022/04/15 01:03:00;;;;;;;11.05;7.53;;;;;;;13.27;100.00;99943.16;5017187;28;20057;-51
2022/04/15 01:05:47;;;;;;;10.98;7.18;;;;;;;13.26;100.00;99937.94;5031080;28;20144;-52
2022/04/15 01:08:36;;;;;;;9.95;7.60;;;;;;;13.25;100.00;99946.72;5029312;28;20064;-51
2022/04/15 01:11:21;;;;;;;12.07;7.32;;;;;;;13.11;100.00;99939.28;5018951;28;20049;-51
2022/04/15 01:14:08;;;;;;;10.70;7.53;;;;;;;13.05;100.00;99942.09;5021774;28;20473;-51
2022/04/15 01:16:55;;;;;;;18.75;10.27;;;;;;;12.70;100.00;99924.84;5027744;28;20056;-51
2022/04/15 01:19:41;;;;;;;17.45;10.75;;;;;;;12.89;100.00;99925.13;5022619;28;20045;-52
2022/04/15 01:22:36;;;;;;;10.00;8.05;;;;;;;12.76;100.00;99906.25;5030061;28;20292;-51
2022/04/15 01:25:20;;;;;;;12.50;8.75;;;;;;;12.72;100.00;99902.03;5026623;28;20053;-52
2022/04/15 01:28:05;;;;;;;9.48;7.10;;;;;;;12.93;100.00;99919.69;5026585;28;20053;-51
2022/04/15 01:30:51;;;;;;;11.73;8.30;;;;;;;13.03;100.00;99936.03;5021376;28;20052;-51
2022/04/15 01:33:35;;;;;;;17.60;8.68;;;;;;;13.02;100.00;99947.47;5019132;28;20052;-52
2022/04/15 01:36:19;;;;;;;18.25;10.35;;;;;;;13.02;100.00;99955.34;5022852;28;20052;-51
2022/04/15 01:39:05;;;;;;;20.92;10.75;;;;;;;13.02;100.00;99958.84;5021332;28;20045;-51
2022/04/15 01:41:51;;;;;;;12.77;8.68;;;;;;;13.01;100.00;99954.50;5018102;28;20056;-52
2022/04/15 01:44:35;;;;;;;12.98;7.78;;;;;;;13.02;100.00;99963.25;5018193;28;20069;-51
2022/04/15 01:47:20;;;;;;;17.33;7.75;;;;;;;13.00;100.00;99960.69;5016524;28;20057;-51
2022/04/15 01:50:06;;;;;;;13.45;8.15;;;;;;;12.90;100.00;99963.63;5016008;28;20073;-52
2022/04/15 01:52:50;;;;;;;11.63;8.05;;;;;;;12.90;100.00;99974.16;5016464;28;20057;-52
2022/04/15 01:55:35;;;;;;;11.38;7.95;;;;;;;12.81;100.00;99975.31;5015539;28;20041;-51
2022/04/15 01:58:20;;;;;;;13.10;8.77;;;;;;;12.88;100.00;99976.00;5016703;28;20050;-52
2022/04/15 02:01:06;;;;;;;7.95;6.60;;;;;;;12.86;100.00;99970.75;5016931;28;20076;-52
2022/04/15 02:03:50;;;;;;;12.18;7.40;;;;;;;12.86;100.00;99963.72;5016401;28;20715;-51
2022/04/15 02:06:35;;;;;;;12.68;7.47;;;;;;;12.88;100.00;99963.69;5017746;28;20053;-52
2022/04/15 02:09:20;;;;;;;9.55;6.75;;;;;;;12.90;100.00;99964.50;5022710;28;20053;-51
2022/04/15 02:12:05;;;;;;;12.20;8.98;;;;;;;12.78;100.00;99959.66;5015627;28;20103;-52
2022/04/15 02:14:49;;;;;;;11.15;8.15;;;;;;;12.70;100.00;99951.13;5015757;28;20669;-51
2022/04/15 02:17:34;;;;;;;12.65;8.93;;;;;;;12.60;100.00;99954.03;5015669;28;20041;-52
2022/04/15 02:20:19;;;;;;;12.18;7.93;;;;;;;12.53;100.00;99959.53;5016539;28;20077;-52
2022/04/15 02:23:04;;;;;;;14.57;8.73;;;;;;;12.51;100.00;99954.34;5014198;28;20045;-52
2022/04/15 02:25:49;;;;;;;11.40;7.65;;;;;;;12.52;100.00;99952.56;5016490;28;20083;-51
2022/04/15 02:28:33;;;;;;;10.63;8.02;;;;;;;12.50;100.00;99959.63;5015525;28;20125;-52
2022/04/15 02:31:18;;;;;;;11.85;7.35;;;;;;;12.56;100.00;99969.97;5015726;28;20050;-51
2022/04/15 02:34:02;;;;;;;13.45;8.20;;;;;;;12.44;100.00;99972.94;5015886;28;20196;-51
2022/04/15 02:36:47;;;;;;;15.15;8.70;;;;;;;12.40;100.00;99969.56;5016430;28;20653;-52
2022/04/15 02:39:32;;;;;;;14.18;9.57;;;;;;;12.49;100.00;99961.41;5015868;28;20081;-52
2022/04/15 02:42:17;;;;;;;12.20;8.48;;;;;;;12.49;100.00;99960.56;5020951;28;20060;-52
2022/04/15 02:45:04;;;;;;;12.65;8.63;;;;;;;12.40;100.00;99961.69;5032958;28;20472;-51
2022/04/15 02:47:49;;;;;;;11.80;8.52;;;;;;;12.45;100.00;99954.53;5023699;28;20460;-52
2022/04/15 02:50:33;;;;;;;14.95;10.10;;;;;;;12.31;100.00;99947.03;5018506;28;20037;-51
2022/04/15 02:53:18;;;;;;;13.73;8.82;;;;;;;12.32;100.00;99964.53;5015671;28;20392;-52
2022/04/15 02:56:03;;;;;;;12.57;9.48;;;;;;;12.26;100.00;99959.47;5015616;28;20135;-52
2022/04/15 02:58:47;;;;;;;14.82;9.38;;;;;;;12.27;100.00;99955.94;5015209;28;20045;-52
2022/04/15 03:01:31;;;;;;;12.80;9.18;;;;;;;12.31;100.00;99968.06;5015477;28;20049;-52
2022/04/15 03:04:16;;;;;;;13.38;9.68;;;;;;;12.12;100.00;99956.38;5015681;28;20068;-52
2022/04/15 03:07:01;;;;;;;11.00;8.05;;;;;;;12.13;100.00;99953.72;5014581;28;20049;-53
2022/04/15 03:09:45;;;;;;;10.57;7.85;;;;;;;12.16;100.00;99955.41;5014498;28;20531;-52
2022/04/15 03:12:34;;;;;;;11.32;7.22;;;;;;;12.24;100.00;99940.25;5015710;28;20042;-52
2022/04/15 03:15:20;;;;;;;9.60;7.25;;;;;;;12.26;100.00;99945.47;5015216;28;20047;-52
2022/04/15 03:18:04;;;;;;;11.02;7.15;;;;;;;12.26;100.00;99943.72;5016052;28;20132;-52
2022/04/15 03:20:50;;;;;;;14.25;7.70;;;;;;;12.18;100.00;99931.69;5016749;28;20064;-52
2022/04/15 03:23:35;;;;;;;14.60;8.20;;;;;;;12.12;100.00;99936.25;5018329;28;20049;-52
2022/04/15 03:26:19;;;;;;;12.68;8.63;;;;;;;12.03;100.00;99936.50;5031313;28;20053;-52
2022/04/15 03:29:04;;;;;;;8.10;6.93;;;;;;;12.14;100.00;99930.94;5027197;28;20369;-52
2022/04/15 03:31:49;;;;;;;11.65;7.32;;;;;;;12.18;100.00;99929.09;5015478;28;20057;-52
2022/04/15 03:34:33;;;;;;;8.98;6.75;;;;;;;12.24;100.00;99919.25;5016029;28;21492;-53
2022/04/15 03:37:17;;;;;;;8.80;6.35;;;;;;;12.24;100.00;99919.25;5018842;28;20100;-53
2022/04/15 03:40:02;;;;;;;10.73;8.57;;;;;;;12.30;100.00;99923.47;5031932;28;20739;-52
2022/04/15 03:42:51;;;;;;;13.40;9.25;;;;;;;12.28;100.00;99923.50;5031067;28;20045;-53
2022/04/15 03:45:35;;;;;;;8.48;6.22;;;;;;;12.35;100.00;99927.69;5015738;28;20046;-52
2022/04/15 03:48:20;;;;;;;15.15;9.02;;;;;;;12.35;100.00;99932.94;5031159;28;20057;-52
2022/04/15 03:51:05;;;;;;;11.50;7.50;;;;;;;12.24;100.00;99937.63;5031690;28;20072;-52
2022/04/15 03:53:49;;;;;;;12.88;7.85;;;;;;;12.08;100.00;99939.00;5031317;28;20049;-53
2022/04/15 03:56:34;;;;;;;11.57;8.43;;;;;;;12.12;100.00;99932.75;5030289;28;20041;-52
2022/04/15 03:59:19;;;;;;;11.35;7.22;;;;;;;12.23;100.00;99928.03;5032038;28;20553;-53
2022/04/15 04:02:03;;;;;;;14.50;8.25;;;;;;;12.29;100.00;99934.88;5029454;28;20087;-52
2022/04/15 04:04:47;;;;;;;13.98;8.10;;;;;;;12.30;100.00;99937.44;5028662;28;20102;-52
2022/04/15 04:07:32;;;;;;;18.23;10.75;;;;;;;12.32;100.00;99935.66;5016417;28;20049;-52
2022/04/15 04:10:17;;;;;;;17.48;10.48;;;;;;;12.23;100.00;99932.44;5024319;28;20065;-52
2022/04/15 04:13:02;;;;;;;20.08;10.88;;;;;;;12.31;100.00;99939.16;5032971;28;20064;-52
2022/04/15 04:15:47;;;;;;;21.90;11.70;;;;;;;12.33;100.00;99942.63;5031697;28;20200;-53
2022/04/15 04:18:31;;;;;;;15.23;9.50;;;;;;;12.19;100.00;99942.19;5031545;28;20403;-52
2022/04/15 04:21:17;;;;;;;10.35;7.20;;;;;;;12.16;100.00;99943.13;5032897;28;20044;-53
2022/04/15 04:24:02;;;;;;;10.63;6.45;;;;;;;12.02;100.00;99937.41;5031769;28;20650;-52
2022/04/15 04:26:47;;;;;;;6.32;5.25;;;;;;;12.21;100.00;99950.00;5026246;28;20091;-52
2022/04/15 04:29:31;;;;;;;6.88;4.85;;;;;;;12.28;100.00;99948.91;5014335;28;20041;-52
2022/04/15 04:32:17;;;;;;;5.88;4.85;;;;;;;12.28;100.00;99954.16;5030485;28;20681;-52
2022/04/15 04:35:03;;;;;;;7.95;6.22;;;;;;;12.19;100.00;99954.41;5031778;28;20033;-53
2022/04/15 04:37:48;;;;;;;7.15;5.68;;;;;;;12.31;100.00;99960.19;5031146;28;20111;-52
2022/04/15 04:40:34;;;;;;;12.75;7.55;;;;;;;12.16;100.00;99947.53;5031192;28;20548;-52
2022/04/15 04:43:19;;;;;;;14.25;8.10;;;;;;;12.25;100.00;99957.75;5028467;28;20128;-52
2022/04/15 04:46:03;;;;;;;11.57;7.30;;;;;;;12.08;100.00;99955.59;5026581;28;20385;-52
2022/04/15 04:48:48;;;;;;;11.38;8.15;;;;;;;12.27;100.00;99961.19;5015927;28;20048;-52
2022/04/15 04:51:32;;;;;;;11.32;8.38;;;;;;;12.23;100.00;99959.56;5011613;28;20049;-52
2022/04/15 04:54:18;;;;;;;9.40;7.57;;;;;;;12.29;100.00;99962.00;5011887;28;20735;-53
2022/04/15 04:57:02;;;;;;;11.57;9.13;;;;;;;12.21;100.00;99953.47;5027601;28;20049;-52
2022/04/15 04:59:47;;;;;;;12.30;9.27;;;;;;;12.19;100.00;99959.66;5026334;28;20050;-52
2022/04/15 05:02:31;;;;;;;12.65;9.27;;;;;;;12.10;100.00;99959.06;5026713;28;20044;-52
2022/04/15 05:05:16;;;;;;;15.45;10.70;;;;;;;12.06;100.00;99960.06;5027313;28;20408;-53
2022/04/15 05:08:00;;;;;;;14.90;10.88;;;;;;;12.22;100.00;99960.47;5028679;28;20046;-52
2022/04/15 05:10:45;;;;;;;17.25;12.60;;;;;;;12.29;100.00;99966.41;5028582;28;20056;-52
2022/04/15 05:13:29;;;;;;;13.00;9.90;;;;;;;12.27;100.00;99973.47;5028678;28;20038;-52
2022/04/15 05:16:15;;;;;;;14.07;10.15;;;;;;;12.19;100.00;99962.31;5028217;28;20053;-52
2022/04/15 05:18:59;;;;;;;16.70;10.43;;;;;;;12.31;100.00;99973.31;5025146;28;20049;-53
2022/04/15 05:21:44;;;;;;;12.63;9.85;;;;;;;12.23;100.00;99964.81;5027331;28;20037;-52
2022/04/15 05:24:29;;;;;;;15.48;10.07;;;;;;;12.40;100.00;99966.94;5025608;28;20656;-52
2022/04/15 05:27:13;;;;;;;13.52;10.65;;;;;;;12.42;100.00;99959.88;5028398;28;20057;-52
2022/04/15 05:29:58;;;;;;;15.00;11.32;;;;;;;12.40;100.00;99961.69;5026283;28;20180;-53
2022/04/15 05:32:42;;;;;;;13.93;9.90;;;;;;;12.56;100.00;99962.06;5023312;28;20107;-52
2022/04/15 05:35:27;;;;;;;14.05;10.07;;;;;;;12.58;100.00;99969.00;5011034;28;20056;-52
2022/04/15 05:38:12;;;;;;;12.70;10.18;;;;;;;12.73;100.00;99977.31;5011820;28;20060;-52
2022/04/15 05:40:56;;;;;;;12.43;10.23;;;;;;;12.73;100.00;99969.44;5009676;28;20440;-52
2022/04/15 05:43:42;;;;;;;13.93;10.52;;;;;;;12.81;100.00;99980.56;5010995;28;20053;-52
2022/04/15 05:46:27;;;;;;;16.80;12.98;;;;;;;12.81;100.00;99977.94;5008942;28;20046;-53
2022/04/15 05:49:15;;;;;;;17.58;12.35;;;;;;;12.54;100.00;99974.38;5011006;28;20053;-53
2022/04/15 05:52:01;;;;;;;15.73;11.88;;;;;;;12.71;100.00;99992.28;5027662;28;20053;-52
2022/04/15 05:54:46;;;;;;;15.30;11.90;;;;;;;12.81;100.00;99988.47;5027476;28;20165;-52
2022/04/15 05:57:30;;;;;;;13.48;12.05;;;;;;;12.80;100.00;99986.72;5030009;28;20067;-52
2022/04/15 06:00:15;;;;;;;16.60;12.02;;;;;;;13.03;100.00;99986.88;5029535;28;20128;-53
2022/04/15 06:02:59;;;;;;;13.52;11.20;;;;;;;13.06;100.00;99981.53;5028108;28;20113;-54
2022/04/15 06:05:44;;;;;;;14.73;11.43;;;;;;;13.13;100.00;99986.56;5017898;28;20467;-54
2022/04/15 06:08:28;;;;;;;13.73;10.43;;;;;;;13.36;100.00;99991.09;5014095;28;20046;-54
2022/04/15 06:11:13;;;;;;;16.17;11.70;;;;;;;13.22;100.00;99988.88;5013496;28;20054;-53
2022/04/15 06:13:57;;;;;;;13.13;10.65;;;;;;;13.54;100.00;99983.44;5028125;28;20053;-54
2022/04/15 06:16:43;;;;;;;14.98;11.95;;;;;;;14.00;100.00;99976.53;5026485;28;20657;-54
2022/04/15 06:19:27;;;;;;;13.18;9.75;;;;;;;15.22;100.00;99985.06;5029274;28;20468;-54
2022/04/15 06:22:12;;;;;;;11.13;9.85;;;;;;;15.62;100.00;99987.72;5030744;28;20116;-54
2022/04/15 06:24:57;;;;;;;12.30;8.90;;;;;;;15.43;100.00;99994.69;5030401;28;20467;-54
2022/04/15 06:27:42;;;;;;;10.77;8.35;;;;;;;15.40;100.00;99995.72;5034998;28;20045;-54
2022/04/15 06:30:27;;;;;;;13.02;7.80;;;;;;;15.52;100.00;99998.75;5032529;28;20098;-54
2022/04/15 06:33:15;;;;;;;9.35;7.47;;;;;;;16.29;100.00;100007.69;5016650;28;20085;-54
2022/04/15 06:36:00;;;;;;;11.52;7.97;;;;;;;16.12;100.00;100007.63;5016724;28;20057;-54
2022/04/15 06:38:45;;;;;;;12.80;8.77;;;;;;;15.63;100.00;100018.50;5020429;28;20067;-54
2022/04/15 06:41:29;;;;;;;9.30;7.60;;;;;;;15.53;100.00;100019.78;5033789;28;20510;-54
2022/04/15 06:44:14;;;;;;;10.13;8.13;;;;;;;15.30;100.00;100015.47;5033910;28;20045;-54
2022/04/15 06:46:58;;;;;;;8.70;7.20;;;;;;;14.95;100.00;100019.56;5033072;28;20053;-54
2022/04/15 06:49:45;;;;;;;10.15;6.80;;;;;;;14.98;100.00;100016.75;5033092;28;20029;-54
2022/04/15 06:52:29;;;;;;;10.35;8.27;;;;;;;14.47;100.00;100017.84;5026334;28;20053;-54
2022/04/15 06:55:14;;;;;;;10.75;7.43;;;;;;;14.52;100.00;100020.34;5033536;28;20473;-54
2022/04/15 06:57:58;;;;;;;9.27;7.95;;;;;;;14.31;100.00;100006.16;5034320;28;20045;-54
2022/04/15 07:00:43;;;;;;;10.18;8.70;;;;;;;14.29;100.00;100008.00;5026173;28;20045;-54
2022/04/15 07:03:29;;;;;;;14.43;9.90;;;;;;;13.86;100.00;100013.03;5033627;28;20685;-54
2022/04/15 07:06:13;;;;;;;17.75;9.60;;;;;;;13.78;100.00;100017.72;5032171;28;20065;-54
2022/04/15 07:08:57;;;;;;;10.70;8.80;;;;;;;13.97;100.00;100010.03;5016675;28;20569;-55
2022/04/15 07:11:42;;;;;;;9.77;8.48;;;;;;;13.86;100.00;100020.09;5016510;28;20045;-54
2022/04/15 07:14:29;;;;;;;9.38;8.32;;;;;;;13.67;100.00;100018.09;5013316;28;20810;-53
2022/04/15 07:17:14;;;;;;;13.57;9.60;;;;;;;13.81;100.00;100020.22;5023377;28;20053;-54
2022/04/15 07:19:58;;;;;;;14.05;9.93;;;;;;;13.62;100.00;100020.03;5018534;28;20404;-53
2022/04/15 07:22:43;;;;;;;13.98;9.82;;;;;;;13.80;100.00;100018.50;5030634;28;20387;-54
2022/04/15 07:25:27;;;;;;;10.60;8.90;;;;;;;14.42;100.00;100015.38;5030059;28;20107;-54
2022/04/15 07:28:12;;;;;;;13.88;10.70;;;;;;;14.93;100.00;100024.88;5030263;28;20053;-53
2022/04/15 07:30:57;;;;;;;18.02;10.57;;;;;;;15.28;100.00;100009.41;5026226;28;20649;-53
2022/04/15 07:33:42;;;;;;;30.17;19.92;;;;;;;15.17;100.00;100019.53;5024264;28;20044;-54
2022/04/15 07:36:43;;;;;;;42.80;25.45;;;;;;;14.82;100.00;100018.28;5027926;28;20045;-53
2022/04/15 07:39:28;;;;;;;20.35;12.77;;;;;;;15.15;100.00;100019.59;5024904;28;20052;-52
2022/04/15 07:42:13;;;;;;;17.88;11.93;;;;;;;15.52;100.00;100022.50;5011270;28;20057;-54
2022/04/15 07:44:57;;;;;;;16.50;12.48;;;;;;;15.93;100.00;100019.91;5013876;28;20096;-53
2022/04/15 07:47:43;;;;;;;15.45;11.32;;;;;;;16.09;100.00;100023.59;5010212;28;20053;-53
2022/04/15 07:50:28;;;;;;;17.60;13.05;;;;;;;15.23;100.00;100021.91;5017100;28;20041;-53
2022/04/15 07:53:13;;;;;;;14.38;11.50;;;;;;;14.89;100.00;100025.91;5018133;28;20053;-54
2022/04/15 07:55:57;;;;;;;12.35;10.25;;;;;;;14.74;100.00;100023.88;5011536;28;20049;-53
2022/04/15 07:58:42;;;;;;;11.70;10.05;;;;;;;15.00;100.00;100028.13;5016317;28;20555;-53
2022/04/15 08:01:27;;;;;;;15.10;11.00;;;;;;;14.95;100.00;100019.56;5018808;28;20049;-55
2022/04/15 08:04:11;;;;;;;13.10;10.10;;;;;;;15.01;100.00;100027.19;5013821;28;20054;-53
2022/04/15 08:06:56;;;;;;;16.42;11.63;;;;;;;15.12;100.00;100024.16;5023294;28;20140;-53
2022/04/15 08:09:40;;;;;;;26.27;15.45;;;;;;;14.90;100.00;100027.63;5014970;28;20045;-53
2022/04/15 08:12:25;;;;;;;13.18;11.68;;;;;;;14.92;100.00;100027.59;5018142;28;20075;-54
2022/04/15 08:15:09;;;;;;;12.93;10.52;;;;;;;15.02;100.00;100036.00;5020113;28;20053;-53
2022/04/15 08:17:54;;;;;;;12.07;9.52;;;;;;;14.76;100.00;100042.28;5021950;28;20069;-54
2022/04/15 08:20:38;;;;;;;11.43;9.55;;;;;;;14.95;100.00;100046.78;5027838;28;20053;-54
2022/04/15 08:23:23;;;;;;;14.45;10.05;;;;;;;14.90;100.00;100032.91;5027496;28;20483;-54
2022/04/15 08:26:07;;;;;;;13.23;11.45;;;;;;;14.78;100.00;100041.28;5027671;28;20731;-53
2022/04/15 08:28:52;;;;;;;15.70;11.88;;;;;;;15.03;100.00;100049.09;5027115;28;20058;-53
2022/04/15 08:31:36;;;;;;;14.05;11.15;;;;;;;14.94;100.00;100042.41;5025785;28;20065;-53
2022/04/15 08:34:21;;;;;;;13.40;10.48;;;;;;;15.17;100.00;100043.28;5026203;28;20071;-53
2022/04/15 08:37:05;;;;;;;11.85;9.63;;;;;;;15.34;100.00;100039.94;5024750;28;20060;-53
2022/04/15 08:39:51;;;;;;;17.10;12.38;;;;;;;15.24;100.00;100050.03;5024213;28;20753;-54
2022/04/15 08:42:36;;;;;;;24.42;15.95;;;;;;;14.88;100.00;100052.34;5030164;28;20049;-53
2022/04/15 08:45:21;;;;;;;15.55;12.27;;;;;;;14.72;100.00;100052.06;5025151;28;20396;-54
2022/04/15 08:48:06;;;;;;;18.45;12.60;;;;;;;14.67;100.00;100049.63;5021593;28;20721;-54
2022/04/15 08:50:51;;;;;;;16.25;12.48;;;;;;;14.53;100.00;100057.19;5022643;28;20088;-54
2022/04/15 08:53:36;;;;;;;17.17;13.07;;;;;;;14.78;100.00;100062.38;5023810;28;20064;-53
2022/04/15 08:56:24;;;;;;;20.33;14.32;;;;;;;14.81;100.00;100061.41;5012763;28;20056;-54
2022/04/15 08:59:09;;;;;;;16.98;13.60;;;;;;;14.72;100.00;100046.78;5016627;28;20124;-54
2022/04/15 09:01:54;;;;;;;18.13;13.75;;;;;;;14.50;100.00;100049.38;5013007;28;20049;-54
2022/04/15 09:04:38;;;;;;;14.68;11.80;;;;;;;14.74;100.00;100047.59;5018279;28;20081;-53
2022/04/15 09:07:27;;;;;;;14.68;11.60;;;;;;;14.77;100.00;100052.75;5020182;28;20049;-54
2022/04/15 09:10:14;;;;;;;15.40;10.75;;;;;;;14.85;100.00;100045.44;5026439;28;20050;-55
2022/04/15 09:13:00;;;;;;;18.27;13.38;;;;;;;14.96;100.00;100063.47;5029572;28;20111;-53
2022/04/15 09:15:44;;;;;;;15.05;12.32;;;;;;;14.95;100.00;100054.69;5012549;28;20053;-54
2022/04/15 09:18:37;;;;;;;13.65;11.63;;;;;;;15.39;100.00;100048.53;5012592;28;20084;-54
2022/04/15 09:21:27;;;;;;;15.77;12.05;;;;;;;15.36;100.00;100046.88;5026352;28;20106;-53
2022/04/15 09:24:12;;;;;;;19.27;12.48;;;;;;;15.70;100.00;100048.16;5024078;28;20050;-53
2022/04/15 09:26:57;;;;;;;20.63;13.98;;;;;;;15.78;100.00;100053.97;5024685;28;20464;-53
2022/04/15 09:29:42;;;;;;;21.13;13.52;;;;;;;16.31;100.00;100056.06;5009867;28;20053;-53
2022/04/15 09:32:28;;;;;;;19.67;12.68;;;;;;;17.03;100.00;100033.41;5028725;28;20459;-53
2022/04/15 09:35:16;;;;;;;18.80;11.60;;;;;;;17.06;100.00;100046.44;5028620;28;20412;-53
2022/04/15 09:38:03;;;;;;;10.75;9.63;;;;;;;17.33;100.00;100038.97;5019450;28;20053;-53
2022/04/15 09:40:47;;;;;;;12.38;10.10;;;;;;;17.31;100.00;100034.69;5011018;28;20111;-54
2022/04/15 09:43:32;;;;;;;12.60;10.45;;;;;;;17.05;100.00;100029.72;5014811;28;20060;-53
2022/04/15 09:46:17;;;;;;;14.23;10.25;;;;;;;17.05;100.00;100032.38;5010927;28;20689;-54
2022/04/15 09:49:06;;;;;;;10.13;8.65;;;;;;;16.90;100.00;100029.59;5018345;28;20053;-54
2022/04/15 09:51:54;;;;;;;14.65;9.88;;;;;;;16.63;100.00;100027.28;5015050;28;20045;-54
2022/04/15 09:54:40;;;;;;;10.25;8.38;;;;;;;16.53;100.00;100028.66;5013228;28;20046;-53
2022/04/15 09:57:33;;;;;;;11.73;8.63;;;;;;;16.26;100.00;100026.34;5008333;28;20080;-53
2022/04/15 10:00:18;;;;;;;;;;;;;;;15.99;100.00;100027.53;5015077;28;20041;-54
2022/04/15 10:03:09;;;;;;;10.80;9.55;;;;;;;15.90;100.00;100026.19;5014897;28;19933;-54
2022/04/15 10:05:56;;;;;;;13.60;10.15;;;;;;;15.68;100.00;100034.16;5017095;28;20065;-54
2022/04/15 10:08:42;;;;;;;13.88;9.77;;;;;;;15.43;100.00;100019.31;5013461;28;20056;-53
2022/04/15 10:11:27;;;;;;;14.65;11.10;;;;;;;15.34;100.00;100040.81;5023288;28;20057;-53
2022/04/15 10:14:13;;;;;;;15.85;10.38;;;;;;;15.27;100.00;100038.47;5025142;28;20041;-53
2022/04/15 10:16:59;;;;;;;17.30;10.68;;;;;;;15.16;100.00;100049.47;5031355;28;20172;-52
2022/04/15 10:19:45;;;;;;;15.07;10.20;;;;;;;15.18;100.00;100043.22;5026521;28;20829;-53
2022/04/15 10:22:30;;;;;;;11.85;9.45;;;;;;;14.93;100.00;100050.38;5025345;28;20060;-52
2022/04/15 10:25:15;;;;;;;17.20;10.45;;;;;;;14.52;100.00;100052.81;5025167;28;20511;-52
2022/04/15 10:28:15;;;;;;;13.48;10.75;;;;;;;14.30;100.00;100059.75;5022806;28;20049;-52
2022/04/15 10:31:11;;;;;;;12.07;8.88;;;;;;;13.93;100.00;100067.19;5024848;28;20718;-51
2022/04/15 10:34:08;;;;;;;15.82;9.32;;;;;;;13.77;100.00;100068.63;5027294;28;21155;-52
2022/04/15 10:36:55;;;;;;;9.10;6.15;;;;;;;13.58;100.00;100063.13;5028054;28;20416;-52
2022/04/15 10:39:50;;;;;;;7.53;4.97;;;;;;;13.45;100.00;100064.44;5025027;28;20050;-52
2022/04/15 10:42:43;;;;;;;5.97;4.93;;;;;;;13.13;100.00;100068.97;5026041;28;20057;-51
2022/04/15 10:45:34;;;;;;;;;;;;;;;13.24;100.00;100063.34;5025833;28;20048;-52
2022/04/15 10:48:30;;;;;;;10.35;6.50;;;;;;;13.63;100.00;100066.47;5024092;28;20372;-52
2022/04/15 10:51:25;;;;;;;58.83;34.25;;;;;;;13.70;100.00;100054.81;5029603;28;20053;-52
2022/04/15 10:54:28;;;;;;;109.38;51.05;;;;;;;13.57;100.00;100059.63;5028165;28;20042;-52
2022/04/15 10:57:15;;;;;;;112.25;56.97;;;;;;;13.82;100.00;100061.47;5023071;28;20092;-52
2022/04/15 11:03:26;;;;;;;117.88;50.60;;;;;;;13.71;100.00;100058.31;5023739;28;20046;-53
2022/04/15 11:06:11;;;;;;;130.57;51.45;;;;;;;13.97;100.00;100050.41;5025597;28;20080;-51
2022/04/15 11:08:56;;;;;;;248.40;121.25;;;;;;;14.22;100.00;100054.78;5032158;28;20065;-52
2022/04/15 11:11:42;;;;;;;90.70;55.95;;;;;;;14.56;100.00;100056.19;5025053;28;20862;-52
2022/04/15 11:14:34;;;;;;;93.85;76.05;;;;;;;14.56;100.00;100049.16;5023018;28;20128;-52
2022/04/15 11:17:36;;;;;;;14.52;12.55;;;;;;;14.52;100.00;100047.53;5024476;28;20055;-51
2022/04/15 11:20:22;;;;;;;10.02;7.38;;;;;;;14.51;100.00;100044.97;5023498;28;20057;-51
2022/04/15 11:23:08;;;;;;;7.18;5.93;;;;;;;14.12;100.00;100054.25;5020289;28;20064;-52
2022/04/15 11:25:57;;;;;;;10.13;6.90;;;;;;;14.18;100.00;100053.19;5024021;28;20044;-51
2022/04/15 11:28:45;;;;;;;9.25;6.32;;;;;;;14.19;100.00;100054.88;5016425;28;20069;-52
2022/04/15 11:31:31;;;;;;;46.70;32.42;;;;;;;14.24;100.00;100052.97;5014198;28;20049;-53
2022/04/15 11:34:17;;;;;;;34.35;22.83;;;;;;;14.35;100.00;100056.06;5014967;28;20794;-53
2022/04/15 11:37:04;;;;;;;62.33;44.03;;;;;;;14.29;100.00;100061.53;5016615;28;20043;-52
2022/04/15 11:39:49;;;;;;;10.93;8.20;;;;;;;14.18;100.00;100045.28;5014138;28;20048;-52
2022/04/15 11:42:33;;;;;;;10.55;9.50;;;;;;;14.24;100.00;100050.31;5014888;28;20045;-52
2022/04/15 11:45:30;;;;;;;7.25;6.30;;;;;;;14.45;100.00;100046.03;5016162;28;20660;-52
2022/04/15 11:48:19;;;;;;;8.68;7.00;;;;;;;14.52;100.00;100044.06;5014494;28;20148;-53
2022/04/15 11:51:04;;;;;;;32.97;23.25;;;;;;;15.10;100.00;100044.44;5014152;28;20041;-53
2022/04/15 11:53:49;;;;;;;27.20;19.48;;;;;;;15.71;100.00;100043.75;5022903;28;20488;-51
2022/04/15 11:56:35;;;;;;;5.88;5.28;;;;;;;16.20;100.00;100037.19;5023134;28;20048;-53
2022/04/15 11:59:19;;;;;;;14.70;9.18;;;;;;;15.75;100.00;100037.41;5022054;28;20050;-53
2022/04/15 12:02:05;;;;;;;5.90;4.68;;;;;;;15.89;100.00;100030.63;5015137;28;20052;-53
2022/04/15 12:04:55;;;;;;;15.48;8.32;;;;;;;16.30;100.00;100025.25;5014556;28;20191;-53
2022/04/15 12:07:42;;;;;;;11.65;6.22;;;;;;;16.61;100.00;100026.53;5015660;28;20489;-53
2022/04/15 12:10:29;;;;;;;14.38;8.30;;;;;;;16.48;100.00;100028.88;5023124;28;20045;-52
2022/04/15 12:13:16;;;;;;;10.93;6.30;;;;;;;16.46;100.00;100027.22;5018713;28;20065;-53
2022/04/15 12:16:00;;;;;;;9.82;5.97;;;;;;;16.47;100.00;100018.34;5028598;28;20042;-53
2022/04/15 12:18:46;;;;;;;16.40;8.30;;;;;;;16.55;100.00;100024.16;5015223;28;20061;-53
2022/04/15 12:21:32;;;;;;;13.15;8.00;;;;;;;16.33;100.00;100021.63;5014889;28;20045;-52
2022/04/15 12:24:22;;;;;;;6.53;4.95;;;;;;;16.18;100.00;100019.66;5016014;28;20046;-52
2022/04/15 12:27:07;;;;;;;23.02;12.75;;;;;;;16.21;100.00;100030.94;5014800;28;20350;-52
2022/04/15 12:29:51;;;;;;;5.32;4.38;;;;;;;15.85;100.00;100042.22;5025475;28;20045;-52
2022/04/15 12:32:38;;;;;;;4.35;2.45;;;;;;;15.54;100.00;100054.97;5029075;28;20068;-53
2022/04/15 12:35:24;;;;;;;11.68;2.60;;;;;;;14.70;100.00;100061.81;5030761;28;20548;-52
2022/04/15 12:38:08;;;;;;;3.15;2.22;;;;;;;13.94;100.00;100070.69;5029085;28;20099;-52
2022/04/15 12:41:09;;;;;;;5.20;2.80;;;;;;;13.54;100.00;100057.09;5028941;28;20407;-52